Terminal Aerodrome Forecast
Issued by NWS Oklahoma City, OK

Home | Current Version | Previous Version | Text Only | Print | Product List | Glossary On
Versions: 1 2 3 4 5 6 7 8 9 10 11 12 13 14 15 16 17 18 19 20 21 22 23 24 25
000
FTUS44 KOUN 260521
TAFOUN
TAF
KOUN 260521Z 2606/2706 07010KT P6SM FEW250
     FM260900 05014KT P6SM OVC012
     FM261100 06012KT 4SM BR OVC007
     FM261600 07011KT P6SM SCT025 BKN250
     FM270000 06013KT P6SM BKN250 PROB30 2700/2703 2SM TSRA BKN050CB
     FM270300 09013KT 5SM -RA BR OVC025
      TEMPO 2703/2706 1SM TSRA BKN025CB=

USA.gov is the U.S. government's official web portal to all federal, state and local government web resources and services.